KABR/ABR METAR and TAF weather

Enter ICAO airport designator
Station Type Date Time Source
KABR METAR 2021/05/14 20:53 UTC NOAA

KABR 142053Z AUTO VRB05G15KT 10SM FEW090 24/05 A2998 RMK AO2 SLP150 T02390050 56012


Station Type Date Time Source
KABR Decoded METAR 2021/05/14 20:53 UTC NOAA

ABERDEEN REGIONAL AIRPORT, SD, United States (KABR) 45-27N 098-25W 400M
May 14, 2021 - 04:53 PM EDT / 2021.05.14 2053 UTC
Wind: Variable at 6 MPH (5 KT) gusting to 17 MPH (15 KT):0
Visibility: 10 mile(s):0
Sky conditions: mostly clear
Temperature: 75.0 F (23.9 C)
Dew Point: 41.0 F (5.0 C)
Relative Humidity: 29%
Pressure (altimeter): 29.98 in. Hg (1015 hPa)
Pressure tendency: 0.04 inches (1.2 hPa) lower than three hours ago
ob: KABR 142053Z AUTO VRB05G15KT 10SM FEW090 24/05 A2998 RMK AO2 SLP150 T02390050 56012
cycle: 21

Station Type Date Time Source
KABR TAF 2021/05/14 18:24 UTC NOAA

TAF KABR 141721Z 1418/1518 29006KT P6SM SKC
FM142100 32008KT P6SM FEW080 SCT200
FM150400 11005KT P6SM FEW250

Example: see airport list